Terminal Aerodrome Forecast
Issued by NWS

Home | Current Version | Previous Version | Text Only | Print | Product List | Glossary On
Versions: 1 2 3 4 5 6 7 8 9 10 11 12 13 14 15 16 17 18 19 20 21 22 23 24 25 26 27 28 29 30 31 32 33 34 35 36 37 38 39
000
FTUS41 KOKX 161900 AAA
TAFHPN
TAF AMD
KHPN 161930Z 1620/1718 34012G20KT P6SM SKC
     FM162200 36010KT P6SM SKC
     FM170200 01008KT P6SM SCT250
     FM170900 04006KT P6SM FEW030 SCT250
     FM171500 10011KT P6SM FEW040 SCT250
      AMD NOT SKED=

USA.gov is the U.S. government's official web portal to all federal, state and local government web resources and services.